Aérodrome :
LOGIN :

S'inscrire | Disclaimer

   EN    FR    IT 

 










Légende :    VFR   VFR Marginal   IFR   IFR Intensif   IFR Très Intensif
Visi : 
Plafond : 
>= 8 km
>= 3000ft
5 à 8 km
1000 à 3000 ft
1500m à 5 km
500 à 1000 ft
800 à 1500m
200 à 500 ft
< 800m
< 200 ft
Symboles :   Orages  Brouillard  Fortes neiges  Fortes précipitations  Vent > 20 kt
SIGMETs :   Divers  Orages  Givrage  Turbulence  Onde Orograph.  Cendres Volcan.







- Altitude de l'aérodrome : 112 ft
- Code IATA : KIR


EIKY - Kerry Farranfore

DERNIER METAR :
  • 200830Z 27010KT 240V300 6000 +RA BKN004 BKN007 OVC017 10/10 Q0998

METARs EXPIRÉS :
  • 200800Z 28005KT 250V330 8000 -RA BKN003 BKN006 08/08 Q0998
  • 200730Z 28006KT 250V320 8000 BKN004 BKN009 08/07 Q0998
  • 200700Z 26007KT 7000 -DZ SCT004 BKN009 BKN027 07/07 Q0998

TAF TAF EIKY
Valide du 20 à 09h jusqu'au 20 à 18h UTC


200800Z 2009/2018 28012KT 9999 SCT006 BKN020
TEMPO 2009/2013 5000 -RADZ BKN006
TEMPO 2009/2015 28017G28KT
PROB40
TEMPO 2009/2011 2000 BR BKN003
Pas de NOTAMs connus pour ce terrain.



MET'MAP, la Météo Aéronautique d'un coup d'oeil ! - Copyright ORBIFLY Décembre 2007 - Disclaimer

ORBIFLY MET'MAP TEAM :

Programmation & Développement : Alexandra Zaïnal
Conception & Développement : Baudouin d'Aumeries
Co-Programmation & Développement : Marc-Olivier Méhu
Soutien technique & logistique : Manuel Goepfert

Contact : metmap@orbifly.com




SOURCES & CREDITS :

   NOAA